createdAt,value
2023-05-09T00:04:41.172Z,4.93
2023-05-09T00:09:44.838Z,5.15
2023-05-09T00:14:47.083Z,4.88
2023-05-09T00:19:49.284Z,5.47
2023-05-09T00:24:53.647Z,5.22
2023-05-09T00:29:55.771Z,5.28
2023-05-09T00:34:58.202Z,4.78
2023-05-09T00:40:01.816Z,5.25
2023-05-09T00:45:04.418Z,5.43
2023-05-09T00:50:08.706Z,5.47
2023-05-09T00:55:13.459Z,4.80
2023-05-09T01:00:17.317Z,5.38
2023-05-09T01:05:20.356Z,5.32
2023-05-09T01:10:32.008Z,5.35
2023-05-09T01:15:39.827Z,5.30
2023-05-09T01:20:45.004Z,5.78
2023-05-09T01:26:02.119Z,5.10
2023-05-09T01:31:07.887Z,5.03
2023-05-09T01:36:15.262Z,5.40
2023-05-09T01:46:22.975Z,6.03
2023-05-09T01:51:26.089Z,5.70
2023-05-09T01:56:29.101Z,5.65
2023-05-09T02:01:32.883Z,5.95
2023-05-09T02:06:36.359Z,6.10
2023-05-09T02:11:38.686Z,5.43
2023-05-09T02:16:42.486Z,5.40
2023-05-09T02:21:44.782Z,5.30
2023-05-09T02:26:47.117Z,5.47
2023-05-09T02:31:51.589Z,5.63
2023-05-09T02:36:53.872Z,5.82
2023-05-09T02:41:56.062Z,5.13
2023-05-09T02:46:59.647Z,5.35
2023-05-09T02:52:01.816Z,5.35
2023-05-09T02:57:04.284Z,5.45
2023-05-09T03:02:07.898Z,5.57
2023-05-09T03:07:10.255Z,5.68
2023-05-09T03:12:12.451Z,6.00
2023-05-09T03:17:15.998Z,5.18
2023-05-09T03:22:18.143Z,5.80
2023-05-09T03:27:20.317Z,5.57
2023-05-09T03:32:24.038Z,5.72
2023-05-09T03:37:27.166Z,6.03
2023-05-09T03:42:29.784Z,5.25
2023-05-09T03:47:33.373Z,5.50
2023-05-09T03:52:35.506Z,5.25
2023-05-09T03:57:37.886Z,5.43
2023-05-09T04:02:41.780Z,5.43
2023-05-09T04:07:44.327Z,5.20
2023-05-09T04:12:46.463Z,5.13
2023-05-09T04:17:50.221Z,5.03
2023-05-09T04:22:52.387Z,4.60
2023-05-09T04:27:54.756Z,4.70
2023-05-09T04:32:58.349Z,4.80
2023-05-09T04:38:00.500Z,5.40
2023-05-09T04:43:02.617Z,4.63
2023-05-09T04:48:06.819Z,4.28
2023-05-09T04:53:09.056Z,4.47
2023-05-09T04:58:11.308Z,4.05
2023-05-09T05:03:14.808Z,4.20
2023-05-09T05:08:17.034Z,4.43
2023-05-09T05:13:19.379Z,3.80
2023-05-09T05:18:23.087Z,3.95
2023-05-09T05:23:25.360Z,4.15
2023-05-09T05:28:27.565Z,3.67
2023-05-09T05:33:31.902Z,4.18
2023-05-09T05:38:34.046Z,3.65
2023-05-09T05:43:36.285Z,4.25
2023-05-09T05:48:39.966Z,3.65
2023-05-09T05:53:42.296Z,3.75
2023-05-09T05:58:44.493Z,3.90
2023-05-09T06:03:48.852Z,4.35
2023-05-09T06:08:51.099Z,3.70
2023-05-09T06:13:53.303Z,4.05
2023-05-09T06:18:57.093Z,4.18
2023-05-09T06:24:08.424Z,3.70
2023-05-09T06:29:16.787Z,3.90
2023-05-09T06:34:20.552Z,4.30
2023-05-09T06:39:22.764Z,4.28
2023-05-09T06:44:25.098Z,3.65
2023-05-09T06:49:28.674Z,4.25
2023-05-09T06:54:30.851Z,3.90
2023-05-09T06:59:33.078Z,4.03
2023-05-09T07:04:36.696Z,4.53
2023-05-09T07:09:38.952Z,4.18
2023-05-09T07:14:41.229Z,4.30
2023-05-09T07:19:44.872Z,4.50
2023-05-09T07:24:47.240Z,4.50
2023-05-09T07:29:49.560Z,4.70
2023-05-09T07:34:56.040Z,4.93
2023-05-09T07:40:25.213Z,4.93
2023-05-09T07:45:29.902Z,5.47
2023-05-09T07:50:34.272Z,5.30
2023-05-09T07:55:36.521Z,5.47
2023-05-09T08:00:38.952Z,6.05
2023-05-09T08:05:42.765Z,6.05
2023-05-09T08:10:45.206Z,5.88
2023-05-09T08:15:47.684Z,5.97
2023-05-09T08:20:51.496Z,7.38
2023-05-09T08:25:54.510Z,6.57
2023-05-09T08:30:56.948Z,7.40
2023-05-09T08:36:00.792Z,6.15
2023-05-09T08:41:03.146Z,7.45
2023-05-09T08:46:08.681Z,6.45
2023-05-09T08:51:12.757Z,6.75
2023-05-09T08:56:15.177Z,7.43
2023-05-09T09:01:18.492Z,6.20
2023-05-09T09:06:23.382Z,6.60
2023-05-09T09:11:25.814Z,8.15
2023-05-09T09:16:33.048Z,8.20
2023-05-09T09:21:37.526Z,7.78
2023-05-09T09:26:48.499Z,8.10
2023-05-09T09:31:54.594Z,8.20
2023-05-09T09:36:58.450Z,9.60
2023-05-09T09:42:12.626Z,7.95
2023-05-09T09:47:14.913Z,8.20
2023-05-09T09:52:25.011Z,7.90
2023-05-09T09:57:34.745Z,9.02
2023-05-09T10:02:47.382Z,9.90
2023-05-09T10:07:57.064Z,10.18
2023-05-09T10:13:02.356Z,9.68
2023-05-09T10:18:05.046Z,10.05
2023-05-09T10:23:09.447Z,9.85
2023-05-09T10:28:13.442Z,10.75
2023-05-09T10:33:20.911Z,11.20
2023-05-09T10:38:25.492Z,11.05
2023-05-09T10:43:28.550Z,10.05
2023-05-09T10:48:32.556Z,9.07
2023-05-09T10:53:46.853Z,10.60
2023-05-09T10:58:49.058Z,9.60
2023-05-09T11:03:56.227Z,9.50
2023-05-09T11:09:23.288Z,8.80
2023-05-09T11:14:43.320Z,8.90
2023-05-09T11:20:03.874Z,9.88
2023-05-09T11:25:10.021Z,9.25
2023-05-09T11:30:15.054Z,10.83
2023-05-09T11:35:18.938Z,10.18
2023-05-09T11:40:23.272Z,10.50
2023-05-09T11:45:27.588Z,9.93
2023-05-09T11:50:29.955Z,10.40
2023-05-09T11:55:37.928Z,10.68
2023-05-09T12:00:45.071Z,11.23
2023-05-09T12:05:49.186Z,10.75
2023-05-09T12:10:52.781Z,12.43
2023-05-09T12:16:01.620Z,12.73
2023-05-09T12:21:04.725Z,12.85
2023-05-09T12:26:08.483Z,14.10
2023-05-09T12:31:11.319Z,14.52
2023-05-09T12:36:13.943Z,13.98
2023-05-09T12:41:30.846Z,13.90
2023-05-09T12:46:37.806Z,15.07
2023-05-09T12:51:49.073Z,14.68
2023-05-09T12:56:54.017Z,14.23
2023-05-09T13:01:58.052Z,13.93
2023-05-09T13:07:00.592Z,15.30
2023-05-09T13:12:04.586Z,13.32
2023-05-09T13:17:06.946Z,13.65
2023-05-09T13:22:11.037Z,13.52
2023-05-09T13:27:15.798Z,12.60
2023-05-09T13:32:18.011Z,13.07
2023-05-09T13:37:20.430Z,14.48
2023-05-09T13:42:24.152Z,12.90
2023-05-09T13:47:26.653Z,13.65
2023-05-09T13:52:28.932Z,14.70
2023-05-09T13:57:32.560Z,14.52
2023-05-09T14:02:34.722Z,14.57
2023-05-09T14:07:36.983Z,14.38
2023-05-09T14:12:41.717Z,13.73
2023-05-09T14:17:44.257Z,12.70
2023-05-09T14:22:46.540Z,12.88
2023-05-09T14:27:50.281Z,13.13
2023-05-09T14:32:52.655Z,12.93
2023-05-09T14:37:54.907Z,12.15
2023-05-09T14:42:58.874Z,13.98
2023-05-09T14:48:01.524Z,13.63
2023-05-09T14:53:03.868Z,13.52
2023-05-09T14:58:07.524Z,11.98
2023-05-09T15:03:09.790Z,12.50
2023-05-09T15:08:11.971Z,2.95
2023-05-09T15:13:15.508Z,2.08
2023-05-09T15:18:17.795Z,1.42
2023-05-09T15:23:20.078Z,1.60
2023-05-09T15:28:23.735Z,1.45
2023-05-09T15:33:26.324Z,1.73
2023-05-09T15:38:28.510Z,1.80
2023-05-09T15:43:32.311Z,1.95
2023-05-09T15:48:34.779Z,1.98
2023-05-09T15:53:37.106Z,2.90
2023-05-09T15:58:41.317Z,3.10
2023-05-09T16:03:43.665Z,4.03
2023-05-09T16:08:45.996Z,4.57
2023-05-09T16:13:49.654Z,4.93
2023-05-09T16:18:51.802Z,5.45
2023-05-09T16:23:53.963Z,6.85
2023-05-09T16:28:57.674Z,6.50
2023-05-09T16:33:59.831Z,7.13
2023-05-09T16:39:02.102Z,7.10
2023-05-09T16:44:05.868Z,6.38
2023-05-09T16:49:07.995Z,7.13
2023-05-09T16:54:10.172Z,7.38
2023-05-09T16:59:13.736Z,8.25
2023-05-09T17:04:15.935Z,8.90
2023-05-09T17:09:19.120Z,7.65
2023-05-09T17:14:22.901Z,9.10
2023-05-09T17:19:25.090Z,13.32
2023-05-09T17:24:27.347Z,14.85
2023-05-09T17:29:30.928Z,14.75
2023-05-09T17:34:33.103Z,13.15
2023-05-09T17:39:38.072Z,12.70
2023-05-09T17:44:43.692Z,11.60
2023-05-09T17:49:46.602Z,12.83
2023-05-09T17:54:48.844Z,12.98
2023-05-09T17:59:52.729Z,13.20
2023-05-09T18:04:54.950Z,12.80
2023-05-09T18:09:57.162Z,11.93
2023-05-09T18:15:00.865Z,11.85
2023-05-09T18:20:08.420Z,11.88
2023-05-09T18:25:10.885Z,13.40
2023-05-09T18:30:15.087Z,13.23
2023-05-09T18:35:17.500Z,14.05
2023-05-09T18:40:19.831Z,12.75
2023-05-09T18:45:23.532Z,11.02
2023-05-09T18:50:25.701Z,11.43
2023-05-09T18:55:27.887Z,14.88
2023-05-09T19:00:31.580Z,12.88
2023-05-09T19:05:34.085Z,15.25
2023-05-09T19:10:36.209Z,14.18
2023-05-09T19:15:39.922Z,15.48
2023-05-09T19:20:42.068Z,18.83
2023-05-09T19:25:50.447Z,19.15
2023-05-09T19:30:55.278Z,19.10
2023-05-09T19:35:57.473Z,17.00
2023-05-09T19:41:00.564Z,16.48
2023-05-09T19:46:17.852Z,15.02
2023-05-09T19:51:20.053Z,15.63
2023-05-09T19:56:26.375Z,14.73
2023-05-09T20:01:30.238Z,15.80
2023-05-09T20:06:32.509Z,14.50
2023-05-09T20:11:34.693Z,15.15
2023-05-09T20:16:38.444Z,14.00
2023-05-09T20:21:41.595Z,12.82
2023-05-09T20:26:47.703Z,13.82
2023-05-09T20:31:52.821Z,12.43
2023-05-09T20:36:55.066Z,14.73
2023-05-09T20:41:58.114Z,15.77
2023-05-09T20:47:01.831Z,16.55
2023-05-09T20:52:13.847Z,16.55
2023-05-09T20:57:18.462Z,16.65
2023-05-09T21:02:22.189Z,15.38
2023-05-09T21:07:24.461Z,17.50
2023-05-09T21:12:26.629Z,15.40
2023-05-09T21:17:30.200Z,13.30
2023-05-09T21:22:32.327Z,12.88
2023-05-09T21:27:34.450Z,12.50
2023-05-09T21:32:38.121Z,12.23
2023-05-09T21:37:40.434Z,12.65
2023-05-09T21:42:43.437Z,11.43
2023-05-09T21:47:49.999Z,11.48
2023-05-09T21:52:52.230Z,9.88
2023-05-09T21:57:54.442Z,11.68
2023-05-09T22:02:58.836Z,11.40
2023-05-09T22:08:01.231Z,10.70
2023-05-09T22:13:03.359Z,10.63
2023-05-09T22:18:07.208Z,9.43
2023-05-09T22:23:09.458Z,9.93
2023-05-09T22:28:11.653Z,10.10
2023-05-09T22:33:15.341Z,8.70
2023-05-09T22:38:17.560Z,6.68
2023-05-09T22:43:19.746Z,5.68
2023-05-09T22:48:23.271Z,5.45
2023-05-09T22:53:25.407Z,5.40
2023-05-09T22:58:27.637Z,5.93
2023-05-09T23:03:31.214Z,6.53
2023-05-09T23:08:39.648Z,7.03
2023-05-09T23:13:41.933Z,7.93
2023-05-09T23:18:45.601Z,8.07
2023-05-09T23:23:47.845Z,8.15
2023-05-09T23:28:50.003Z,9.38
2023-05-09T23:33:55.104Z,8.63
2023-05-09T23:44:30.112Z,10.18
2023-05-09T23:55:33.719Z,9.77
